Time;durP1;ratioP1;P1;durP2;ratioP2;P2;SDS_P1;SDS_P2;PMS_P1;PMS_P2;Temp;Humidity;BMP_temperature;BMP_pressure;BME280_temperature;BME280_humidity;BME280_pressure;Samples;Min_cycle;Max_cycle;Signal;HPM_P1;HPM_P2
2020/12/30 00:00:08;;;;;;;6.05;3.95;;;1.20;99.90;;;;;;5131829;27;20131;-73
2020/12/30 00:02:35;;;;;;;5.50;3.60;;;1.20;99.90;;;;;;5114199;27;20336;-73
2020/12/30 00:05:12;;;;;;;5.05;3.80;;;1.20;99.90;;;;;;5118801;27;20131;-74
2020/12/30 00:07:39;;;;;;;5.57;3.75;;;1.20;99.90;;;;;;5107120;28;20050;-74
2020/12/30 00:10:09;;;;;;;4.20;3.80;;;1.20;99.90;;;;;;5114865;27;20101;-74
2020/12/30 00:12:36;;;;;;;7.07;3.70;;;1.30;99.90;;;;;;5121927;27;20142;-74
2020/12/30 00:15:04;;;;;;;5.63;3.80;;;1.30;99.90;;;;;;5128932;27;20082;-73
2020/12/30 00:17:31;;;;;;;5.55;4.10;;;1.30;99.90;;;;;;5132540;27;20096;-74
2020/12/30 00:19:58;;;;;;;4.68;3.95;;;1.20;99.90;;;;;;5117045;27;20413;-75
2020/12/30 00:22:25;;;;;;;4.50;3.60;;;1.20;99.90;;;;;;5125683;27;20071;-75
2020/12/30 00:24:51;;;;;;;5.15;3.83;;;1.20;99.90;;;;;;5128164;27;20096;-74
2020/12/30 00:27:18;;;;;;;8.88;4.28;;;1.20;99.90;;;;;;5123231;27;20494;-75
2020/12/30 00:29:44;;;;;;;5.70;3.70;;;1.20;99.90;;;;;;5125791;27;20091;-76
2020/12/30 00:32:11;;;;;;;6.60;4.05;;;1.20;99.90;;;;;;5123668;27;20078;-73
2020/12/30 00:34:40;;;;;;;4.75;3.33;;;1.20;99.90;;;;;;5117901;27;20050;-74
2020/12/30 00:37:07;;;;;;;9.05;4.28;;;1.20;99.90;;;;;;5098584;28;20039;-74
2020/12/30 00:39:34;;;;;;;7.05;4.82;;;1.20;99.90;;;;;;5125018;27;20067;-74
2020/12/30 00:42:00;;;;;;;7.10;4.25;;;1.10;99.90;;;;;;5127502;27;20168;-74
2020/12/30 00:44:29;;;;;;;5.90;4.63;;;1.20;99.90;;;;;;5115940;27;20130;-74
2020/12/30 00:46:56;;;;;;;5.90;4.93;;;1.20;99.90;;;;;;5130689;27;20058;-74
2020/12/30 00:49:24;;;;;;;9.45;4.40;;;1.20;99.90;;;;;;5127317;27;20051;-74
2020/12/30 00:51:55;;;;;;;6.00;4.50;;;1.30;99.90;;;;;;5099593;27;20066;-74
2020/12/30 00:54:22;;;;;;;6.70;4.30;;;1.30;99.90;;;;;;5130908;27;20098;-74
2020/12/30 00:56:49;;;;;;;4.85;4.18;;;1.30;99.90;;;;;;5117875;27;20498;-74
2020/12/30 00:59:16;;;;;;;7.00;4.50;;;1.40;99.90;;;;;;5128344;27;20412;-74
2020/12/30 01:01:43;;;;;;;9.57;4.63;;;1.30;99.90;;;;;;5130967;27;20386;-74
2020/12/30 01:04:10;;;;;;;7.78;5.38;;;1.40;99.90;;;;;;5121067;27;20043;-74
2020/12/30 01:06:36;;;;;;;7.30;4.97;;;1.30;99.90;;;;;;5130625;27;20042;-74
2020/12/30 01:09:06;;;;;;;5.75;4.88;;;1.30;99.90;;;;;;5121366;27;20051;-75
2020/12/30 01:11:33;;;;;;;6.45;5.00;;;1.30;99.90;;;;;;5130176;27;20055;-74
2020/12/30 01:13:59;;;;;;;7.47;5.50;;;1.30;99.90;;;;;;5111944;27;20125;-73
2020/12/30 01:16:26;;;;;;;8.52;5.80;;;1.30;99.90;;;;;;5131614;27;20122;-75
2020/12/30 01:18:53;;;;;;;7.03;4.97;;;1.20;99.90;;;;;;5119083;27;20763;-74
2020/12/30 01:21:20;;;;;;;6.50;5.43;;;1.10;99.90;;;;;;5102849;27;20046;-74
2020/12/30 01:23:46;;;;;;;6.35;5.10;;;1.10;99.90;;;;;;5122736;27;20392;-74
2020/12/30 01:26:13;;;;;;;7.43;5.43;;;1.10;99.90;;;;;;5113399;27;20097;-73
2020/12/30 01:28:41;;;;;;;8.45;5.25;;;1.10;99.90;;;;;;5104154;27;20126;-73
2020/12/30 01:31:07;;;;;;;8.15;5.82;;;1.10;99.90;;;;;;5126525;27;20051;-74
2020/12/30 01:33:34;;;;;;;5.75;5.07;;;1.00;99.90;;;;;;5130674;27;20433;-75
2020/12/30 01:36:00;;;;;;;8.27;5.75;;;1.10;99.90;;;;;;5117872;27;20083;-74
2020/12/30 01:38:27;;;;;;;6.32;5.13;;;1.10;99.90;;;;;;5107103;28;20043;-73
2020/12/30 01:40:56;;;;;;;7.95;5.28;;;1.10;99.90;;;;;;5121332;27;20122;-73
2020/12/30 01:43:23;;;;;;;6.60;5.15;;;1.10;99.90;;;;;;5119603;27;20148;-73
2020/12/30 01:45:52;;;;;;;6.93;5.65;;;1.10;99.90;;;;;;5121965;27;20130;-74
2020/12/30 01:48:23;;;;;;;9.27;5.45;;;1.10;99.90;;;;;;5109336;27;20071;-74
2020/12/30 01:50:51;;;;;;;7.97;5.28;;;1.10;99.90;;;;;;5130102;27;20077;-73
2020/12/30 01:53:18;;;;;;;6.78;4.65;;;1.20;99.90;;;;;;5110662;27;20079;-73
2020/12/30 01:55:44;;;;;;;6.30;5.38;;;1.20;99.90;;;;;;5116912;27;20408;-74
2020/12/30 01:58:11;;;;;;;9.18;5.55;;;1.20;99.90;;;;;;5117848;27;20458;-74
2020/12/30 02:00:40;;;;;;;6.53;4.82;;;1.30;99.90;;;;;;5110635;27;20051;-74
2020/12/30 02:03:08;;;;;;;8.40;5.03;;;1.30;99.90;;;;;;5127381;27;20043;-74
2020/12/30 02:05:36;;;;;;;9.02;5.22;;;1.30;99.90;;;;;;5101216;27;20039;-74
2020/12/30 02:08:04;;;;;;;9.05;5.50;;;1.30;99.90;;;;;;5123902;27;20136;-74
2020/12/30 02:10:31;;;;;;;8.57;4.95;;;1.30;99.90;;;;;;5112174;27;20383;-74
2020/12/30 02:12:59;;;;;;;7.07;4.68;;;1.30;99.90;;;;;;5110313;27;20146;-75
2020/12/30 02:15:30;;;;;;;9.70;5.05;;;1.30;99.90;;;;;;5127322;27;20083;-74
2020/12/30 02:17:58;;;;;;;7.20;5.07;;;1.30;99.90;;;;;;5121859;27;20047;-73
2020/12/30 02:20:24;;;;;;;7.53;4.95;;;1.30;99.90;;;;;;5110188;28;20089;-74
2020/12/30 02:22:59;;;;;;;7.30;5.07;;;1.30;99.90;;;;;;5095446;28;20136;-74
2020/12/30 02:25:26;;;;;;;8.75;5.50;;;1.30;99.90;;;;;;5108977;28;20079;-74
2020/12/30 02:27:53;;;;;;;6.43;5.30;;;1.30;99.90;;;;;;5094096;28;20089;-73
2020/12/30 02:30:19;;;;;;;7.65;5.47;;;1.30;99.90;;;;;;5114439;28;20126;-74
2020/12/30 02:32:47;;;;;;;6.70;4.97;;;1.20;99.90;;;;;;5128518;28;20038;-74
2020/12/30 02:35:14;;;;;;;7.22;5.07;;;1.30;99.90;;;;;;5095004;28;20039;-74
2020/12/30 02:37:41;;;;;;;6.25;5.13;;;1.20;99.90;;;;;;5113529;28;20070;-73
2020/12/30 02:40:07;;;;;;;9.88;4.40;;;1.20;99.90;;;;;;5109694;28;20071;-73
2020/12/30 02:42:34;;;;;;;12.10;5.25;;;1.20;99.90;;;;;;5111260;28;20040;-74
2020/12/30 02:45:05;;;;;;;7.20;4.60;;;1.20;99.90;;;;;;5121972;28;20134;-73
2020/12/30 02:47:32;;;;;;;8.40;4.80;;;1.20;99.90;;;;;;5111721;28;20051;-74
2020/12/30 02:49:59;;;;;;;7.25;4.68;;;1.20;99.90;;;;;;5115943;28;20135;-74
2020/12/30 02:52:27;;;;;;;5.30;4.53;;;1.20;99.90;;;;;;5114941;28;20410;-74
2020/12/30 02:54:53;;;;;;;6.38;4.70;;;1.20;99.90;;;;;;5126053;28;20039;-74
2020/12/30 02:57:20;;;;;;;7.03;4.47;;;1.10;99.90;;;;;;5114088;28;20074;-75
2020/12/30 02:59:47;;;;;;;7.43;4.95;;;1.10;99.90;;;;;;5125350;27;20043;-74
2020/12/30 03:02:13;;;;;;;8.52;5.03;;;1.10;99.90;;;;;;5130003;28;20096;-74
2020/12/30 03:04:39;;;;;;;7.10;4.43;;;1.10;99.90;;;;;;5117131;28;20074;-74
2020/12/30 03:07:06;;;;;;;6.15;5.10;;;1.00;99.90;;;;;;5117585;27;20169;-73
2020/12/30 03:09:32;;;;;;;6.50;4.53;;;1.00;99.90;;;;;;5108553;28;20070;-74
2020/12/30 03:11:58;;;;;;;6.25;4.93;;;0.90;99.90;;;;;;5110536;27;20051;-73
2020/12/30 03:14:25;;;;;;;8.65;5.20;;;0.80;99.90;;;;;;5127569;27;20126;-74
2020/12/30 03:16:52;;;;;;;7.93;5.38;;;0.80;99.90;;;;;;5132675;27;20185;-74
2020/12/30 03:19:18;;;;;;;7.57;5.00;;;0.80;99.90;;;;;;5131360;27;20086;-74
2020/12/30 03:21:44;;;;;;;9.65;5.18;;;0.80;99.90;;;;;;5120685;27;20092;-74
2020/12/30 03:24:11;;;;;;;6.32;4.85;;;0.80;99.90;;;;;;5121289;27;20126;-74
2020/12/30 03:26:37;;;;;;;7.82;5.22;;;0.70;99.90;;;;;;5128737;27;20107;-74
2020/12/30 03:29:03;;;;;;;7.00;5.00;;;0.70;99.90;;;;;;5121015;27;20123;-74
2020/12/30 03:31:31;;;;;;;8.75;4.70;;;0.60;99.90;;;;;;5127980;27;20192;-74
2020/12/30 03:33:58;;;;;;;8.48;4.80;;;0.70;99.90;;;;;;5109555;27;20074;-75
2020/12/30 03:36:25;;;;;;;7.30;4.97;;;0.70;99.90;;;;;;5132160;27;20088;-74
2020/12/30 03:38:51;;;;;;;7.32;4.43;;;0.70;99.90;;;;;;5132079;27;20047;-74
2020/12/30 03:41:18;;;;;;;10.57;4.93;;;0.80;99.90;;;;;;5129641;27;20085;-74
2020/12/30 03:43:45;;;;;;;7.25;4.07;;;0.80;99.90;;;;;;5117999;27;20069;-73
2020/12/30 03:46:11;;;;;;;4.60;3.90;;;1.00;99.90;;;;;;5131667;27;20134;-74
2020/12/30 03:48:38;;;;;;;6.07;3.75;;;1.10;99.90;;;;;;5125818;27;20050;-72
2020/12/30 03:51:04;;;;;;;6.47;3.55;;;1.10;99.90;;;;;;5126683;27;20146;-76
2020/12/30 03:53:31;;;;;;;8.50;3.55;;;1.10;99.90;;;;;;5120581;27;20127;-75
2020/12/30 03:55:57;;;;;;;7.10;3.50;;;1.10;99.90;;;;;;5128697;27;20626;-73
2020/12/30 03:58:24;;;;;;;4.88;3.85;;;1.10;99.90;;;;;;5107177;27;20070;-74
2020/12/30 04:00:51;;;;;;;5.05;3.40;;;1.00;99.90;;;;;;5119608;27;20717;-74
2020/12/30 04:03:17;;;;;;;4.75;3.47;;;1.00;99.90;;;;;;5127281;27;20075;-74
2020/12/30 04:05:43;;;;;;;7.80;3.80;;;0.90;99.90;;;;;;5126597;27;20477;-73
2020/12/30 04:08:09;;;;;;;8.57;3.95;;;0.90;99.90;;;;;;5127835;27;20131;-73
2020/12/30 04:10:36;;;;;;;6.72;4.03;;;0.90;99.90;;;;;;5120355;27;20052;-74
2020/12/30 04:13:03;;;;;;;6.03;3.38;;;0.90;99.90;;;;;;5114101;27;20122;-73
2020/12/30 04:15:29;;;;;;;8.30;3.75;;;1.00;99.90;;;;;;5125312;27;20561;-74
2020/12/30 04:17:55;;;;;;;7.57;3.33;;;1.10;99.90;;;;;;5129697;27;20051;-73
2020/12/30 04:20:22;;;;;;;7.32;5.00;;;1.20;99.90;;;;;;5117251;27;20170;-73
2020/12/30 04:22:49;;;;;;;3.97;3.40;;;1.20;99.90;;;;;;5112072;27;20111;-73
2020/12/30 04:25:15;;;;;;;4.53;3.60;;;1.20;99.90;;;;;;5124019;27;20075;-74
2020/12/30 04:27:41;;;;;;;5.13;3.67;;;1.30;99.90;;;;;;5116954;27;20046;-73
2020/12/30 04:30:08;;;;;;;8.45;4.07;;;1.30;99.90;;;;;;5125120;27;20391;-74
2020/12/30 04:32:35;;;;;;;3.83;3.30;;;1.20;99.90;;;;;;5132326;27;20132;-74
2020/12/30 04:35:01;;;;;;;4.47;3.30;;;1.20;99.90;;;;;;5123955;27;20047;-73
2020/12/30 04:37:27;;;;;;;5.40;3.55;;;1.20;99.90;;;;;;5117308;27;20044;-75
2020/12/30 04:39:54;;;;;;;4.60;3.42;;;1.20;99.90;;;;;;5117885;27;20055;-74
2020/12/30 04:42:31;;;;;;;6.57;3.55;;;1.20;99.90;;;;;;5121891;27;20122;-75
2020/12/30 04:45:01;;;;;;;5.78;3.17;;;1.20;99.90;;;;;;5123695;27;20126;-74
2020/12/30 04:47:29;;;;;;;7.82;3.80;;;1.30;99.90;;;;;;5132194;27;20126;-75
2020/12/30 04:49:55;;;;;;;6.90;3.63;;;1.30;99.90;;;;;;5115107;27;20130;-74
2020/12/30 04:52:25;;;;;;;7.70;3.72;;;1.20;99.90;;;;;;5114216;27;20074;-75
2020/12/30 04:54:52;;;;;;;5.40;3.80;;;1.20;99.90;;;;;;5123324;27;20477;-74
2020/12/30 04:57:37;;;;;;;7.85;4.18;;;1.20;99.90;;;;;;5124350;27;20127;-72
2020/12/30 05:00:07;;;;;;;5.28;3.40;;;1.20;99.90;;;;;;5122767;27;20043;-73
2020/12/30 05:02:35;;;;;;;9.77;4.45;;;1.10;99.90;;;;;;5131559;27;20516;-74
2020/12/30 05:05:02;;;;;;;7.95;3.75;;;1.00;99.90;;;;;;5126147;27;20097;-75
2020/12/30 05:07:29;;;;;;;5.32;3.58;;;0.90;99.90;;;;;;5122362;27;20118;-74
2020/12/30 05:09:57;;;;;;;7.32;4.20;;;0.90;99.90;;;;;;5129381;27;20122;-73
2020/12/30 05:12:24;;;;;;;8.38;4.28;;;0.90;99.90;;;;;;5124189;27;20050;-74
2020/12/30 05:14:51;;;;;;;5.43;4.20;;;0.90;99.90;;;;;;5121732;27;20073;-74
2020/12/30 05:17:17;;;;;;;6.22;4.50;;;0.80;99.90;;;;;;5106378;27;20051;-74
2020/12/30 05:19:45;;;;;;;5.88;4.38;;;0.90;99.90;;;;;;5129149;27;20112;-74
2020/12/30 05:22:17;;;;;;;9.05;4.47;;;0.90;99.90;;;;;;5119414;27;20043;-74
2020/12/30 05:24:45;;;;;;;7.40;4.07;;;0.80;99.90;;;;;;5128662;27;20074;-74
2020/12/30 05:27:13;;;;;;;7.93;4.70;;;0.80;99.90;;;;;;5122293;27;20038;-73
2020/12/30 05:29:58;;;;;;;7.25;4.60;;;0.80;99.90;;;;;;5114896;27;20122;-74
2020/12/30 05:32:25;;;;;;;8.00;4.22;;;0.80;99.90;;;;;;5099222;27;20138;-73
2020/12/30 05:34:53;;;;;;;8.88;4.65;;;0.70;99.90;;;;;;5127584;27;20096;-73
2020/12/30 05:37:29;;;;;;;6.72;4.40;;;0.80;99.90;;;;;;5112082;27;20418;-74
2020/12/30 05:39:56;;;;;;;8.70;4.57;;;0.70;99.90;;;;;;5110315;27;20511;-73
2020/12/30 05:42:23;;;;;;;11.00;5.35;;;0.70;99.90;;;;;;5126616;27;20558;-74
2020/12/30 05:44:51;;;;;;;9.77;5.78;;;0.70;99.90;;;;;;5112067;27;20047;-73
2020/12/30 05:47:24;;;;;;;10.25;5.18;;;0.70;99.90;;;;;;5129712;27;20075;-73
2020/12/30 05:49:53;;;;;;;9.43;5.40;;;0.60;99.90;;;;;;5120413;27;20102;-73
2020/12/30 05:52:28;;;;;;;11.55;5.60;;;0.70;99.90;;;;;;5116837;27;20108;-74
2020/12/30 05:54:56;;;;;;;6.00;4.82;;;0.70;99.90;;;;;;5101504;27;20047;-73
2020/12/30 05:57:23;;;;;;;9.40;5.70;;;0.70;99.90;;;;;;5116319;27;20051;-73
2020/12/30 05:59:52;;;;;;;7.25;5.65;;;0.70;99.90;;;;;;5120503;27;20088;-74
2020/12/30 06:02:22;;;;;;;7.60;6.43;;;0.70;99.90;;;;;;5130360;27;20127;-73
2020/12/30 06:04:53;;;;;;;9.70;6.93;;;0.80;99.90;;;;;;5119472;27;20126;-73
2020/12/30 06:07:20;;;;;;;8.27;6.55;;;0.80;99.90;;;;;;5125727;27;20053;-73
2020/12/30 06:09:52;;;;;;;12.75;7.15;;;0.80;99.90;;;;;;5119456;27;20452;-74
2020/12/30 06:12:27;;;;;;;12.38;7.40;;;0.70;99.90;;;;;;5112426;27;20122;-73
2020/12/30 06:14:55;;;;;;;12.02;7.10;;;0.70;99.90;;;;;;5123188;27;20070;-73
2020/12/30 06:17:26;;;;;;;13.05;8.38;;;0.70;99.90;;;;;;5130215;27;20121;-74
2020/12/30 06:19:54;;;;;;;8.57;6.33;;;0.60;99.90;;;;;;5126692;27;20043;-73
2020/12/30 06:22:26;;;;;;;10.63;7.82;;;0.60;99.90;;;;;;5119307;27;20043;-73
2020/12/30 06:24:56;;;;;;;11.60;8.32;;;0.70;99.90;;;;;;5113266;27;20093;-73
2020/12/30 06:27:25;;;;;;;12.88;8.68;;;0.60;99.90;;;;;;5121184;27;20490;-73
2020/12/30 06:29:55;;;;;;;14.65;8.27;;;0.60;99.90;;;;;;5115199;27;20051;-74
2020/12/30 06:32:29;;;;;;;11.73;8.85;;;0.60;99.90;;;;;;5130156;28;20078;-74
2020/12/30 06:34:56;;;;;;;11.07;7.18;;;0.60;99.90;;;;;;5123743;28;20515;-73
2020/12/30 06:37:33;;;;;;;10.55;7.95;;;0.70;99.90;;;;;;5129734;28;20116;-73
2020/12/30 06:40:19;;;;;;;13.32;8.20;;;0.70;99.90;;;;;;5124699;28;20485;-74
2020/12/30 06:42:49;;;;;;;10.27;8.05;;;0.70;99.90;;;;;;5113744;28;20039;-75
2020/12/30 06:45:35;;;;;;;11.38;8.02;;;0.70;99.90;;;;;;5117495;27;20075;-84
2020/12/30 06:48:02;;;;;;;11.50;7.75;;;0.60;99.90;;;;;;5119743;27;20147;-75
2020/12/30 06:50:29;;;;;;;11.07;8.45;;;0.60;99.90;;;;;;5111936;27;20047;-75
2020/12/30 06:52:56;;;;;;;14.73;8.68;;;0.60;99.90;;;;;;5112361;27;20046;-74
2020/12/30 06:55:44;;;;;;;11.88;7.78;;;0.50;99.90;;;;;;5111393;28;20123;-74
2020/12/30 06:58:47;;;;;;;9.55;7.25;;;0.50;99.90;;;;;;5117743;27;20142;-73
2020/12/30 07:01:19;;;;;;;13.70;7.43;;;0.50;99.90;;;;;;5113682;28;20157;-73
2020/12/30 07:03:47;;;;;;;10.35;7.47;;;0.40;99.90;;;;;;5127949;27;20051;-76
2020/12/30 07:06:35;;;;;;;11.85;8.15;;;0.40;99.90;;;;;;5102565;27;20146;-73
2020/12/30 07:09:04;;;;;;;9.90;6.95;;;0.30;99.90;;;;;;5120162;27;20117;-74
2020/12/30 07:11:50;;;;;;;14.35;7.72;;;0.30;99.90;;;;;;5130899;27;20057;-73
2020/12/30 07:14:21;;;;;;;11.88;8.05;;;0.30;99.90;;;;;;5127307;27;20108;-75
2020/12/30 07:16:49;;;;;;;11.68;8.32;;;0.30;99.90;;;;;;5133386;27;20481;-74
2020/12/30 07:19:27;;;;;;;9.73;7.10;;;0.30;99.90;;;;;;5113473;27;20066;-75
2020/12/30 07:21:59;;;;;;;10.68;7.72;;;0.30;99.90;;;;;;5119382;27;20043;-74
2020/12/30 07:24:33;;;;;;;9.10;5.60;;;0.30;99.90;;;;;;5119198;27;20039;-74
2020/12/30 07:27:05;;;;;;;9.57;6.97;;;0.40;99.90;;;;;;5118592;27;20133;-73
2020/12/30 07:29:32;;;;;;;;;;;0.40;99.90;;;;;;5100968;28;20100;-73
2020/12/30 07:32:01;;;;;;;10.52;6.20;;;0.50;99.90;;;;;;5125656;27;19963;-73
2020/12/30 07:34:30;;;;;;;8.57;5.95;;;0.50;99.90;;;;;;5127661;27;20139;-73
2020/12/30 07:36:57;;;;;;;6.50;5.40;;;0.60;99.90;;;;;;5113519;27;20044;-73
2020/12/30 07:39:32;;;;;;;8.60;6.03;;;0.60;99.90;;;;;;5111494;27;20111;-74
2020/12/30 07:41:59;;;;;;;8.80;5.68;;;0.60;99.90;;;;;;5106962;27;20051;-73
2020/12/30 07:44:26;;;;;;;7.63;4.85;;;0.60;99.90;;;;;;5121657;27;20091;-74
2020/12/30 07:47:03;;;;;;;7.15;5.32;;;0.70;99.90;;;;;;5132979;27;20080;-73
2020/12/30 07:49:31;;;;;;;7.10;5.28;;;0.70;99.90;;;;;;5125186;27;20035;-74
2020/12/30 07:52:01;;;;;;;6.78;4.75;;;0.70;99.90;;;;;;5119501;28;20116;-74
2020/12/30 07:54:28;;;;;;;9.43;5.22;;;0.70;99.90;;;;;;5119221;28;20128;-74
2020/12/30 07:57:02;;;;;;;6.15;4.55;;;0.70;99.90;;;;;;5119298;27;22051;-74
2020/12/30 07:59:30;;;;;;;6.43;4.85;;;0.80;99.90;;;;;;5123283;28;20387;-73
2020/12/30 08:02:04;;;;;;;9.60;5.45;;;0.80;99.90;;;;;;5113345;28;20051;-73
2020/12/30 08:04:38;;;;;;;7.22;5.22;;;0.80;99.90;;;;;;5097111;28;20130;-74
2020/12/30 08:07:07;;;;;;;10.43;5.00;;;0.90;99.90;;;;;;5091777;28;20500;-73
2020/12/30 08:09:36;;;;;;;5.90;5.13;;;1.00;99.90;;;;;;5091526;28;20067;-74
2020/12/30 08:12:04;;;;;;;10.32;5.40;;;0.90;99.90;;;;;;5099604;28;20050;-73
2020/12/30 08:14:33;;;;;;;8.50;5.93;;;1.00;99.90;;;;;;5112367;28;20044;-74
2020/12/30 08:17:04;;;;;;;5.13;4.22;;;1.00;99.90;;;;;;5093520;28;20043;-73
2020/12/30 08:19:42;;;;;;;9.73;5.63;;;1.10;99.90;;;;;;5109427;28;20062;-74
2020/12/30 08:22:10;;;;;;;6.45;4.47;;;1.20;99.90;;;;;;5112393;28;20047;-73
2020/12/30 08:24:51;;;;;;;7.20;4.80;;;1.30;99.90;;;;;;5105103;27;20043;-74
2020/12/30 08:27:22;;;;;;;4.38;3.88;;;1.50;99.90;;;;;;5098950;28;20482;-75
2020/12/30 08:30:00;;;;;;;6.10;4.35;;;1.60;99.90;;;;;;5099922;28;20314;-73
2020/12/30 08:32:29;;;;;;;5.18;3.72;;;1.70;99.90;;;;;;5121655;28;20388;-74
2020/12/30 08:34:59;;;;;;;5.38;3.50;;;1.90;99.90;;;;;;5119107;27;20047;-75
2020/12/30 08:37:29;;;;;;;8.82;4.18;;;2.00;99.90;;;;;;5109798;28;20203;-74
2020/12/30 08:40:00;;;;;;;7.35;4.78;;;1.90;99.90;;;;;;5120433;28;20541;-73
2020/12/30 08:42:44;;;;;;;5.20;4.00;;;1.80;99.90;;;;;;5120117;28;20044;-74
2020/12/30 08:45:12;;;;;;;6.80;3.95;;;1.80;99.90;;;;;;5120839;28;20430;-73
2020/12/30 08:47:40;;;;;;;8.18;4.53;;;1.80;99.90;;;;;;5110019;28;20105;-74
2020/12/30 08:50:08;;;;;;;7.78;4.35;;;1.80;99.90;;;;;;5094838;27;733817;-75
2020/12/30 08:52:42;;;;;;;8.00;5.20;;;1.80;99.90;;;;;;5111176;27;20047;-74
2020/12/30 08:55:10;;;;;;;8.15;4.40;;;1.80;99.90;;;;;;5091708;28;20253;-74
2020/12/30 08:57:46;;;;;;;7.88;5.05;;;1.80;99.90;;;;;;5113506;27;20221;-74
2020/12/30 09:00:20;;;;;;;8.80;5.65;;;1.80;99.90;;;;;;5119912;27;20044;-74
2020/12/30 09:02:51;;;;;;;9.43;6.00;;;1.80;99.90;;;;;;5121542;27;20051;-74
2020/12/30 09:05:27;;;;;;;11.88;7.05;;;1.80;99.90;;;;;;5129243;27;20336;-75
2020/12/30 09:07:54;;;;;;;7.90;4.90;;;1.90;99.90;;;;;;5128747;27;20067;-73
2020/12/30 09:10:21;;;;;;;5.38;3.33;;;2.00;99.90;;;;;;5104174;27;20086;-74
2020/12/30 09:12:48;;;;;;;7.80;3.38;;;2.00;99.90;;;;;;5102642;27;20509;-74
2020/12/30 09:15:15;;;;;;;5.90;3.97;;;2.00;99.90;;;;;;5105229;27;20456;-73
2020/12/30 09:17:42;;;;;;;5.55;3.30;;;2.10;99.90;;;;;;5130969;27;20117;-74
2020/12/30 09:20:15;;;;;;;3.30;3.00;;;2.10;99.90;;;;;;5125958;27;20104;-74
2020/12/30 09:22:43;;;;;;;3.28;2.97;;;2.20;99.90;;;;;;5104404;27;20115;-74
2020/12/30 09:25:27;;;;;;;3.45;3.15;;;2.30;99.90;;;;;;5125871;27;20125;-74
2020/12/30 09:27:54;;;;;;;5.55;3.63;;;2.40;99.90;;;;;;5112495;27;20424;-73
2020/12/30 09:30:25;;;;;;;5.72;3.40;;;2.50;99.90;;;;;;5119670;27;20043;-74
2020/12/30 09:33:09;;;;;;;5.15;3.28;;;2.60;99.90;;;;;;5113706;27;20051;-73
2020/12/30 09:35:35;;;;;;;3.58;2.80;;;2.60;99.90;;;;;;5107200;27;20911;-73
2020/12/30 09:38:02;;;;;;;5.72;2.83;;;2.70;99.90;;;;;;5108463;28;20098;-74
2020/12/30 09:40:28;;;;;;;4.55;3.15;;;2.90;99.90;;;;;;5109146;28;20047;-74
2020/12/30 09:43:09;;;;;;;5.00;2.90;;;3.20;99.90;;;;;;5097338;28;20043;-73
2020/12/30 09:45:35;;;;;;;4.30;3.10;;;3.30;99.90;;;;;;5126864;27;20082;-74
2020/12/30 09:48:16;;;;;;;2.65;2.38;;;3.20;99.90;;;;;;5126190;27;20035;-74
2020/12/30 09:50:44;;;;;;;4.90;2.70;;;3.20;99.90;;;;;;5116917;27;20385;-74
2020/12/30 09:53:11;;;;;;;5.10;3.70;;;3.00;99.90;;;;;;5113815;27;20439;-73
2020/12/30 09:55:38;;;;;;;4.82;3.00;;;2.80;99.90;;;;;;5108319;28;20120;-73
2020/12/30 09:58:04;;;;;;;5.10;2.80;;;2.70;99.90;;;;;;5098310;27;20096;-73
2020/12/30 10:00:31;;;;;;;6.78;2.78;;;2.70;99.90;;;;;;5110872;28;20043;-74
2020/12/30 10:02:58;;;;;;;4.38;2.55;;;2.70;99.90;;;;;;5091298;28;20115;-74
2020/12/30 10:05:25;;;;;;;5.43;2.58;;;2.80;99.90;;;;;;5113199;27;20132;-74
2020/12/30 10:07:52;;;;;;;5.15;2.92;;;2.80;99.90;;;;;;5122599;27;20074;-73
2020/12/30 10:10:18;;;;;;;5.07;2.45;;;2.70;99.90;;;;;;5113796;27;20092;-74
2020/12/30 10:12:47;;;;;;;4.65;2.50;;;2.60;99.90;;;;;;5111473;27;20043;-73
2020/12/30 10:15:14;;;;;;;4.53;2.97;;;2.60;99.90;;;;;;5098340;28;20047;-73
2020/12/30 10:17:41;;;;;;;5.90;3.05;;;2.70;99.90;;;;;;5108722;28;20474;-75
2020/12/30 10:20:08;;;;;;;5.60;2.80;;;3.00;99.90;;;;;;5115602;27;20477;-74
2020/12/30 10:22:36;;;;;;;6.68;3.30;;;3.00;99.90;;;;;;5109456;27;20047;-73
2020/12/30 10:25:04;;;;;;;5.22;3.88;;;3.00;99.90;;;;;;5090175;28;20470;-74
2020/12/30 10:27:31;;;;;;;4.35;3.08;;;2.90;99.90;;;;;;5110377;27;20046;-73
2020/12/30 10:29:58;;;;;;;6.53;3.55;;;2.90;99.90;;;;;;5090636;28;20062;-73
2020/12/30 10:32:25;;;;;;;14.68;7.13;;;3.00;99.90;;;;;;5114500;28;20076;-74
2020/12/30 10:34:52;;;;;;;6.28;3.47;;;3.20;99.90;;;;;;5111061;28;20059;-73
2020/12/30 10:37:20;;;;;;;6.18;3.47;;;3.40;99.90;;;;;;5108942;28;20079;-75
2020/12/30 10:39:49;;;;;;;4.93;2.90;;;3.60;99.90;;;;;;5095747;28;20120;-74
2020/12/30 10:42:17;;;;;;;6.80;3.45;;;3.80;99.90;;;;;;5112958;28;20116;-75
2020/12/30 10:44:44;;;;;;;3.67;2.90;;;3.90;99.90;;;;;;5104792;27;20042;-74
2020/12/30 10:47:10;;;;;;;6.90;3.35;;;3.90;99.90;;;;;;5090825;28;20075;-73
2020/12/30 10:49:37;;;;;;;6.47;2.85;;;3.80;99.90;;;;;;5111746;28;20130;-74
2020/12/30 10:52:04;;;;;;;7.75;3.00;;;3.80;99.90;;;;;;5116724;28;20071;-73
2020/12/30 10:54:31;;;;;;;4.15;2.90;;;3.90;99.90;;;;;;5090542;28;20059;-73
2020/12/30 10:56:57;;;;;;;5.88;3.38;;;4.00;99.90;;;;;;5112803;28;20043;-74
2020/12/30 10:59:25;;;;;;;3.55;2.50;;;4.20;99.90;;;;;;5095329;28;20046;-74
2020/12/30 11:01:53;;;;;;;6.40;3.22;;;4.70;99.90;;;;;;5109120;28;20126;-74
2020/12/30 11:04:20;;;;;;;7.28;3.15;;;5.10;99.90;;;;;;5090193;28;20101;-74
2020/12/30 11:06:47;;;;;;;4.65;2.72;;;5.00;99.90;;;;;;5091159;28;20123;-73
2020/12/30 11:09:14;;;;;;;6.28;3.63;;;4.80;99.90;;;;;;5102620;28;20071;-74
2020/12/30 11:11:40;;;;;;;7.35;2.78;;;4.40;99.90;;;;;;5127796;28;20043;-74
2020/12/30 11:14:07;;;;;;;9.48;5.82;;;4.30;99.90;;;;;;5116084;28;20080;-74
2020/12/30 11:16:34;;;;;;;4.30;3.20;;;4.10;99.90;;;;;;5127797;28;20111;-73
2020/12/30 11:19:00;;;;;;;8.77;3.53;;;4.00;99.90;;;;;;5127999;28;20127;-72
2020/12/30 11:21:27;;;;;;;3.75;2.35;;;3.80;99.90;;;;;;5098785;28;20070;-72
2020/12/30 11:23:53;;;;;;;4.45;2.80;;;3.80;99.90;;;;;;5108271;28;20047;-72
2020/12/30 11:26:20;;;;;;;11.73;2.88;;;3.80;99.90;;;;;;5113333;28;20116;-73
2020/12/30 11:28:46;;;;;;;6.88;3.08;;;3.90;99.90;;;;;;5116938;28;20077;-73
2020/12/30 11:31:13;;;;;;;6.03;2.58;;;3.80;99.90;;;;;;5104170;27;20138;-72
2020/12/30 11:33:41;;;;;;;4.55;2.40;;;3.70;99.90;;;;;;5110011;27;20043;-72
2020/12/30 11:36:07;;;;;;;4.60;3.30;;;3.60;99.90;;;;;;5129400;27;20047;-73
2020/12/30 11:38:34;;;;;;;6.60;3.33;;;3.40;99.90;;;;;;5107832;27;20078;-73
2020/12/30 11:41:00;;;;;;;8.57;3.08;;;3.30;99.90;;;;;;5131736;27;20475;-73
2020/12/30 11:43:28;;;;;;;10.10;3.10;;;3.30;99.90;;;;;;5121988;27;20112;-74
2020/12/30 11:45:55;;;;;;;7.90;4.10;;;3.30;99.90;;;;;;5120782;27;20060;-74
2020/12/30 11:48:22;;;;;;;3.58;2.90;;;3.20;99.90;;;;;;5108278;28;20040;-74
2020/12/30 11:50:48;;;;;;;6.50;3.63;;;3.20;99.90;;;;;;5107385;28;20070;-74
2020/12/30 11:53:14;;;;;;;5.53;3.25;;;3.20;99.90;;;;;;5107158;28;20044;-73
2020/12/30 11:55:41;;;;;;;5.40;3.20;;;3.20;99.90;;;;;;5108580;28;20086;-74
2020/12/30 11:58:07;;;;;;;3.78;3.33;;;3.30;99.90;;;;;;5098137;28;20108;-74
2020/12/30 12:00:33;;;;;;;4.30;3.13;;;3.40;99.90;;;;;;5096466;28;20059;-74
2020/12/30 12:03:00;;;;;;;4.97;3.15;;;3.40;99.90;;;;;;5109443;28;20079;-73
2020/12/30 12:05:26;;;;;;;4.93;3.42;;;3.30;99.90;;;;;;5100084;28;20044;-75
2020/12/30 12:07:53;;;;;;;4.05;3.15;;;3.50;99.90;;;;;;5095743;28;20097;-73
2020/12/30 12:10:19;;;;;;;4.05;3.00;;;3.50;99.90;;;;;;5106639;28;20143;-74
2020/12/30 12:12:45;;;;;;;5.90;3.35;;;3.70;99.90;;;;;;5101256;28;20044;-76
2020/12/30 12:15:12;;;;;;;5.70;3.47;;;3.70;99.90;;;;;;5105544;28;20526;-73
2020/12/30 12:17:38;;;;;;;8.80;3.30;;;4.00;99.90;;;;;;5110092;28;20044;-74
2020/12/30 12:20:04;;;;;;;5.43;2.95;;;4.30;99.90;;;;;;5106922;28;20044;-73
2020/12/30 12:22:31;;;;;;;5.28;3.30;;;4.40;99.90;;;;;;5100824;28;20047;-74
2020/12/30 12:24:57;;;;;;;7.22;2.97;;;4.50;99.90;;;;;;5095488;28;20043;-73
2020/12/30 12:27:24;;;;;;;5.45;2.83;;;5.00;99.90;;;;;;5108216;28;20139;-74
2020/12/30 12:29:52;;;;;;;3.95;2.53;;;6.00;99.90;;;;;;5097123;28;20044;-75
2020/12/30 12:32:31;;;;;;;6.22;4.13;;;6.50;99.90;;;;;;5110148;28;20085;-74
2020/12/30 12:34:59;;;;;;;6.13;2.90;;;6.40;99.90;;;;;;5104687;28;20439;-73
2020/12/30 12:37:26;;;;;;;5.50;3.33;;;6.50;99.90;;;;;;5098128;28;20078;-74
2020/12/30 12:39:54;;;;;;;5.10;2.42;;;7.00;99.90;;;;;;5104907;28;20108;-74
2020/12/30 12:42:22;;;;;;;7.25;3.35;;;7.60;99.90;;;;;;5102948;28;20063;-75
2020/12/30 12:44:49;;;;;;;7.93;2.97;;;7.80;99.90;;;;;;5099019;28;20102;-73
2020/12/30 12:47:15;;;;;;;5.95;3.40;;;7.90;99.90;;;;;;5105814;28;20566;-75
2020/12/30 12:49:42;;;;;;;4.97;3.40;;;7.80;99.90;;;;;;5109078;27;20071;-73
2020/12/30 12:52:09;;;;;;;7.43;3.22;;;7.60;99.90;;;;;;5128295;27;20051;-73
2020/12/30 12:54:35;;;;;;;6.28;3.53;;;7.40;99.90;;;;;;5121329;27;20577;-73
2020/12/30 12:57:06;;;;;;;5.10;2.78;;;6.50;99.90;;;;;;5108449;27;20127;-73
2020/12/30 12:59:33;;;;;;;5.93;3.80;;;5.60;99.90;;;;;;5112412;27;20047;-73
2020/12/30 13:02:01;;;;;;;4.57;2.92;;;5.10;99.90;;;;;;5125207;27;20055;-72